Latest Weather Observations for Maria Island

IDT60901

Issued at 4:01 pm EST Tuesday 24 May 2016 (issued every 10 minutes, with the page automatically refreshed every 10 minutes)

About weather observations | Map of Hobart area stations | Latest observations for Hobart area | Other Formats
Station Details ID: 092124 Name: MARIA ISLAND (POINT LESUEUR) Lat: -42.66 Lon: 148.02 Height: 28.0 m
Data from the previous 72 hours. | See also: Recent months at Maria Island
Date/Time
EST
Tmp

°C
App
Tmp
°C
Dew
Point
°C
Rel
Hum
%
Delta-T

°C
Wind Press
QNH
hPa
Press
MSL
hPa
Rain
since
9 am
mm
Dir
 
Spd
km/h
Gust
km/h
Spd
kts
Gust
kts
24/04:00pm 9.8 - - - - SW 43 54 23 29 1013.4 1013.4 1.2
24/03:30pm 10.9 - - - - SW 43 52 23 28 1013.0 1013.0 1.2
24/03:00pm 10.2 - - - - SW 41 56 22 30 1013.0 1013.0 1.2
24/02:30pm 11.4 - - - - SSW 52 70 28 38 1012.6 1012.6 1.2
24/02:00pm 9.9 - - - - SW 39 61 21 33 1012.8 1012.8 1.2
24/01:51pm 9.8 - - - - SW 37 61 20 33 1012.8 1012.8 1.2
24/01:30pm 9.9 - - - - SW 37 44 20 24 1012.7 1012.7 1.2
24/01:00pm 10.5 - - - - SW 39 52 21 28 1012.5 1012.5 1.2
24/12:31pm 9.8 - - - - SW 44 63 24 34 1012.7 1012.7 1.0
24/12:30pm 9.5 - - - - SW 46 63 25 34 1012.6 1012.6 1.0
24/12:00pm 10.3 - - - - SW 46 59 25 32 1012.6 1012.6 1.0
24/11:30am 9.1 - - - - SW 52 67 28 36 1012.7 1012.7 1.0
24/11:02am 8.9 - - - - SSW 57 78 31 42 1012.8 1012.8 0.0
24/11:00am 9.6 - - - - SSW 54 69 29 37 1012.8 1012.8 0.0
24/10:30am 9.2 - - - - SW 43 63 23 34 1012.8 1012.8 0.0
24/10:12am 10.6 - - - - SW 44 65 24 35 1012.5 1012.5 0.0
24/10:00am 10.4 - - - - SW 43 59 23 32 1012.5 1012.5 0.0
24/09:30am 10.1 - - - - SW 46 69 25 37 1012.1 1012.1 0.0
24/09:00am 10.3 - - - - SW 46 57 25 31 1012.0 1012.0 5.0
24/08:30am 10.1 - - - - SW 50 69 27 37 1011.5 1011.5 5.0
24/08:00am 10.1 - - - - SW 48 63 26 34 1011.1 1011.1 5.0
24/07:30am 9.9 - - - - SW 50 65 27 35 1010.7 1010.7 5.0
24/07:01am 10.1 - - - - SW 52 72 28 39 1010.5 1010.5 5.0
24/07:00am 10.2 - - - - SW 54 72 29 39 1010.5 1010.5 5.0
24/06:54am 10.2 - - - - SW 52 72 28 39 1010.1 1010.1 5.0
24/06:30am 10.1 - - - - SW 46 61 25 33 1010.2 1010.2 5.0
24/06:00am 10.1 - - - - SW 46 56 25 30 1010.2 1010.2 5.0
24/05:30am 10.0 - - - - SW 44 57 24 31 1010.0 1010.0 5.0
24/05:00am 9.9 - - - - SW 43 57 23 31 1010.0 1010.0 5.0
24/04:30am 9.9 - - - - WSW 39 54 21 29 1010.1 1010.1 5.0
24/04:00am 9.7 - - - - WSW 30 43 16 23 1009.9 1009.9 5.0
24/03:30am 9.6 - - - - WSW 20 37 11 20 1010.0 1010.0 5.0
24/03:00am 9.8 - - - - WSW 24 37 13 20 1009.9 1009.9 5.0
24/02:30am 9.8 - - - - WSW 32 39 17 21 1009.8 1009.8 5.0
24/02:00am 9.4 - - - - W 24 35 13 19 1010.0 1010.0 5.0
24/01:30am 9.4 - - - - WSW 26 37 14 20 1009.8 1009.8 5.0
24/01:00am 9.5 - - - - WSW 30 43 16 23 1009.9 1009.9 5.0
24/12:30am 9.4 - - - - WSW 28 37 15 20 1009.6 1009.6 5.0
24/12:00am 9.3 - - - - WSW 30 41 16 22 1009.6 1009.6 5.0
 
Date/Time
EST
Tmp

°C
App
Tmp
°C
Dew
Point
°C
Rel
Hum
%
Delta-T

°C
Wind Press
QNH
hPa
Press
MSL
hPa
Rain
since
9 am
mm
Dir
 
Spd
km/h
Gust
km/h
Spd
kts
Gust
kts
23/11:30pm 9.4 - - - - WSW 33 43 18 23 1009.2 1009.2 5.0
23/11:04pm 9.6 - - - - WSW 28 46 15 25 1009.0 1009.0 5.0
23/11:00pm 9.3 - - - - WSW 24 33 13 18 1009.2 1009.2 5.0
23/10:30pm 9.5 - - - - WSW 32 39 17 21 1009.1 1009.1 5.0
23/10:23pm 9.6 - - - - WSW 35 54 19 29 1008.9 1008.9 5.0
23/10:00pm 9.6 - - - - WSW 32 44 17 24 1008.8 1008.8 5.0
23/09:44pm 9.5 - - - - WSW 35 54 19 29 1009.0 1009.0 5.0
23/09:30pm 9.7 - - - - WSW 44 57 24 31 1008.6 1008.6 5.0
23/09:00pm 9.7 - - - - WSW 41 54 22 29 1008.3 1008.3 5.0
23/08:30pm 10.0 - - - - WSW 35 46 19 25 1007.9 1007.9 5.0
23/08:00pm 9.7 - - - - WSW 37 54 20 29 1007.5 1007.5 5.0
23/07:30pm 9.6 - - - - WSW 32 39 17 21 1007.4 1007.4 5.0
23/07:15pm 9.5 - - - - WSW 32 50 17 27 1007.1 1007.1 5.0
23/07:00pm 9.8 - - - - WSW 41 54 22 29 1006.8 1006.8 5.0
23/06:36pm 9.9 - - - - WSW 37 57 20 31 1006.4 1006.4 5.0
23/06:30pm 9.7 - - - - WSW 32 46 17 25 1006.3 1006.3 5.0
23/06:00pm 9.5 - - - - WSW 37 46 20 25 1005.7 1005.7 5.0
23/05:30pm 9.4 - - - - WSW 32 43 17 23 1005.2 1005.2 4.8
23/05:00pm 9.7 - - - - WSW 30 37 16 20 1004.7 1004.7 4.8
23/04:30pm 10.2 - - - - WSW 26 35 14 19 1004.5 1004.5 4.8
23/04:00pm 10.2 - - - - WSW 32 39 17 21 1004.0 1004.0 4.8
23/03:30pm 10.7 - - - - WSW 28 39 15 21 1003.3 1003.3 4.8
23/03:00pm 11.0 - - - - W 30 39 16 21 1003.0 1003.0 4.8
23/02:30pm 11.2 - - - - WSW 22 28 12 15 1002.5 1002.5 4.8
23/02:00pm 10.8 - - - - WSW 24 33 13 18 1002.6 1002.6 4.8
23/01:30pm 10.9 - - - - WSW 28 37 15 20 1002.4 1002.4 4.8
23/01:00pm 11.0 - - - - WSW 30 37 16 20 1002.2 1002.2 4.6
23/12:30pm 11.3 - - - - WSW 30 37 16 20 1002.0 1002.0 4.6
23/12:14pm 11.0 - - - - WSW 17 33 9 18 1001.9 1001.9 4.6
23/12:00pm 10.8 - - - - WNW 7 13 4 7 1002.2 1002.2 4.6
23/11:30am 10.5 - - - - WNW 9 13 5 7 1002.5 1002.5 3.2
23/11:00am 10.9 - - - - WNW 9 13 5 7 1002.8 1002.8 2.2
23/10:30am 11.0 - - - - W 7 9 4 5 1003.2 1003.2 1.2
23/10:00am 11.1 - - - - NW 6 7 3 4 1003.5 1003.5 0.8
23/09:30am 11.6 - - - - NW 6 9 3 5 1003.0 1003.0 0.0
23/09:00am 11.4 - - - - WNW 11 13 6 7 1002.8 1002.8 4.4
23/08:30am 11.5 - - - - WNW 19 28 10 15 1003.2 1003.2 4.4
23/08:00am 11.3 - - - - E 11 13 6 7 1001.7 1001.7 4.4
23/07:30am 11.6 - - - - SW 11 17 6 9 1002.2 1002.2 4.2
23/07:00am 11.6 - - - - WNW 19 24 10 13 1003.4 1003.4 3.8
23/06:30am 12.2 - - - - WNW 13 20 7 11 1003.8 1003.8 2.2
23/06:00am 12.5 - - - - WSW 24 39 13 21 1002.5 1002.5 0.6
23/05:48am 12.8 - - - - WSW 35 57 19 31 1002.6 1002.6 0.4
23/05:32am 13.9 - - - - WNW 46 65 25 35 1002.2 1002.2 0.0
23/05:30am 14.3 - - - - WNW 48 65 26 35 1002.1 1002.1 0.0
23/05:22am 14.8 - - - - NNW 30 61 16 33 1001.8 1001.8 0.0
23/05:21am 15.6 - - - - N 28 50 15 27 1002.0 1002.0 0.0
23/05:00am 15.8 - - - - N 32 41 17 22 1001.3 1001.3 0.0
23/04:30am 16.1 - - - - N 32 37 17 20 1001.4 1001.4 0.0
23/04:00am 15.9 - - - - N 32 35 17 19 1002.0 1002.0 0.0
23/03:30am 15.8 - - - - N 32 35 17 19 1003.1 1003.1 0.0
23/03:00am 16.6 - - - - N 41 48 22 26 1003.4 1003.4 0.0
23/02:30am 16.1 - - - - N 28 41 15 22 1004.6 1004.6 0.0
23/02:00am 14.5 - - - - N 22 24 12 13 1005.4 1005.4 0.0
23/01:30am 14.2 - - - - N 20 24 11 13 1005.5 1005.5 0.0
23/01:00am 15.1 - - - - N 30 33 16 18 1005.7 1005.7 0.0
23/12:30am 15.1 - - - - N 32 35 17 19 1006.0 1006.0 0.0
23/12:00am 15.2 - - - - N 37 43 20 23 1006.4 1006.4 0.0
 
Date/Time
EST
Tmp

°C
App
Tmp
°C
Dew
Point
°C
Rel
Hum
%
Delta-T

°C
Wind Press
QNH
hPa
Press
MSL
hPa
Rain
since
9 am
mm
Dir
 
Spd
km/h
Gust
km/h
Spd
kts
Gust
kts
22/11:30pm 15.2 - - - - N 33 39 18 21 1007.4 1007.4 0.0
22/11:00pm 15.1 - - - - N 30 35 16 19 1008.0 1008.0 0.0
22/10:30pm 14.9 - - - - N 19 24 10 13 1008.4 1008.4 0.0
22/10:00pm 14.7 - - - - NNW 22 26 12 14 1008.9 1008.9 0.0
22/09:30pm 14.6 - - - - NNW 24 26 13 14 1009.1 1009.1 0.0
22/09:00pm 14.7 - - - - NNW 19 22 10 12 1009.0 1009.0 0.0
22/08:30pm 14.6 - - - - N 26 28 14 15 1009.5 1009.5 0.0
22/08:00pm 14.7 - - - - N 20 24 11 13 1010.3 1010.3 0.0
22/07:30pm 14.1 - - - - N 24 26 13 14 1010.8 1010.8 0.0
22/07:00pm 13.9 - - - - N 24 28 13 15 1011.1 1011.1 0.0
22/06:30pm 14.7 - - - - N 26 32 14 17 1010.8 1010.8 0.0
22/06:00pm 15.1 - - - - N 33 37 18 20 1010.6 1010.6 0.0
22/05:30pm 15.3 - - - - N 32 37 17 20 1010.9 1010.9 0.0
22/05:00pm 15.4 - - - - N 22 28 12 15 1011.4 1011.4 0.0
22/04:30pm 15.6 - - - - NNE 20 22 11 12 1011.9 1011.9 0.0
22/04:00pm 15.5 - - - - N 22 24 12 13 1012.3 1012.3 0.0
22/03:30pm 15.4 - - - - N 17 20 9 11 1012.6 1012.6 0.0
22/03:00pm 15.1 - - - - N 24 28 13 15 1012.5 1012.5 0.0
22/02:30pm 15.6 - - - - N 32 33 17 18 1012.5 1012.5 0.0
22/02:00pm 15.8 - - - - N 22 26 12 14 1013.3 1013.3 0.0
22/01:30pm 15.1 - - - - NNE 20 24 11 13 1013.7 1013.7 0.0
22/01:00pm 14.7 - - - - N 19 22 10 12 1014.5 1014.5 0.0
22/12:30pm 14.4 - - - - N 19 20 10 11 1014.9 1014.9 0.0
22/12:00pm 14.7 - - - - N 20 22 11 12 1015.3 1015.3 0.0
22/11:30am 14.3 - - - - N 22 24 12 13 1016.0 1016.0 0.0
22/11:00am 14.4 - - - - N 24 28 13 15 1016.3 1016.3 0.0
22/10:30am 14.2 - - - - N 19 22 10 12 1016.9 1016.9 0.0
22/10:00am 14.5 - - - - N 26 28 14 15 1017.3 1017.3 0.0
22/09:30am 14.2 - - - - N 30 33 16 18 1017.5 1017.5 0.0
22/09:00am 14.0 - - - - N 26 30 14 16 1017.6 1017.6 0.0
22/08:30am 14.0 - - - - N 33 35 18 19 1017.6 1017.6 0.0
22/08:00am 13.6 - - - - N 33 37 18 20 1017.8 1017.8 0.0
22/07:30am 13.0 - - - - NNW 22 28 12 15 1017.7 1017.7 0.0
22/07:00am 12.2 - - - - NNW 17 20 9 11 1018.1 1018.1 0.0
22/06:30am 12.2 - - - - NNW 17 19 9 10 1018.4 1018.4 0.0
22/06:00am 12.4 - - - - NW 20 22 11 12 1018.3 1018.3 0.0
22/05:30am 12.5 - - - - NW 17 19 9 10 1018.2 1018.2 0.0
22/05:00am 12.5 - - - - NW 17 20 9 11 1018.2 1018.2 0.0
22/04:30am 12.5 - - - - NNW 20 22 11 12 1018.1 1018.1 0.0
22/04:00am 12.4 - - - - NNW 20 24 11 13 1018.4 1018.4 0.0
22/03:30am 12.3 - - - - NNW 19 22 10 12 1018.6 1018.6 0.0
22/03:00am 12.3 - - - - NNW 15 17 8 9 1018.9 1018.9 0.0
22/02:30am 12.1 - - - - NNW 19 20 10 11 1019.1 1019.1 0.0
22/02:00am 12.3 - - - - N 22 24 12 13 1019.1 1019.1 0.0
22/01:30am 11.9 - - - - NW 19 24 10 13 1019.4 1019.4 0.0
22/01:00am 11.9 - - - - NW 19 20 10 11 1019.2 1019.2 0.0
22/12:30am 12.3 - - - - NNW 20 22 11 12 1019.2 1019.2 0.0
22/12:00am 12.2 - - - - NNW 22 28 12 15 1019.5 1019.5 0.0
 
Date/Time
EST
Tmp

°C
App
Tmp
°C
Dew
Point
°C
Rel
Hum
%
Delta-T

°C
Wind Press
QNH
hPa
Press
MSL
hPa
Rain
since
9 am
mm
Dir
 
Spd
km/h
Gust
km/h
Spd
kts
Gust
kts
21/11:30pm 12.2 - - - - NNW 19 22 10 12 1020.0 1020.0 0.0
21/11:00pm 11.9 - - - - NNW 15 17 8 9 1020.3 1020.3 0.0
21/10:30pm 11.8 - - - - N 13 15 7 8 1020.5 1020.5 0.0
21/10:00pm 11.5 - - - - N 11 13 6 7 1020.7 1020.7 0.0
21/09:30pm 11.6 - - - - N 9 11 5 6 1021.0 1021.0 0.0
21/09:00pm 11.4 - - - - N 6 6 3 3 1020.7 1020.7 0.0
21/08:30pm 11.8 - - - - N 6 7 3 4 1021.0 1021.0 0.0
21/08:00pm 11.9 - - - - NNW 6 9 3 5 1020.8 1020.8 0.0
21/07:30pm 12.1 - - - - WNW 9 13 5 7 1020.6 1020.6 0.0
21/07:00pm 12.5 - - - - W 13 17 7 9 1020.8 1020.8 0.0
21/06:30pm 12.7 - - - - W 15 22 8 12 1020.7 1020.7 0.0
21/06:00pm 12.8 - - - - W 15 19 8 10 1020.5 1020.5 0.0
21/05:30pm 12.9 - - - - W 20 24 11 13 1020.4 1020.4 0.0
21/05:00pm 13.0 - - - - WNW 15 19 8 10 1020.1 1020.1 0.0
21/04:30pm 13.6 - - - - W 13 17 7 9 1020.2 1020.2 0.0

Latest Capital City Observations: Canberra | Sydney | Melbourne | Brisbane | Adelaide | Perth | Hobart | Darwin

Other Formats:

Comma delimited format used in spreadsheet applications
http://www.bom.gov.au/fwo/IDT60901/IDT60901.95988.axf

JavaScript Object Notation format (JSON) in row-major order
http://www.bom.gov.au/fwo/IDT60901/IDT60901.95988.json